Time;durP1;ratioP1;P1;durP2;ratioP2;P2;SDS_P1;SDS_P2;PMS_P1;PMS_P2;Temp;Humidity;BMP_temperature;BMP_pressure;BME280_temperature;BME280_humidity;BME280_pressure;Samples;Min_cycle;Max_cycle;Signal;HPM_P1;HPM_P2
2022/05/30 00:00:14;;;;;;;5.22;3.00;;;;;;;15.74;74.80;94788.34;5067980;28;20520;-81
2022/05/30 00:02:40;;;;;;;3.92;2.85;;;;;;;15.76;74.70;94786.25;5066266;28;20028;-81
2022/05/30 00:05:08;;;;;;;6.95;3.40;;;;;;;15.72;74.67;94789.63;5067675;28;20028;-81
2022/05/30 00:07:35;;;;;;;5.47;3.20;;;;;;;15.71;74.21;94796.91;5084545;28;20036;-81
2022/05/30 00:10:00;;;;;;;13.63;3.15;;;;;;;15.67;74.35;94793.00;5066716;28;20452;-81
2022/05/30 00:12:26;;;;;;;5.55;2.85;;;;;;;15.66;74.72;94783.22;5067198;28;20040;-81
2022/05/30 00:14:51;;;;;;;6.13;3.00;;;;;;;15.63;74.75;94786.38;5084109;28;20028;-82
2022/05/30 00:17:16;;;;;;;4.35;3.25;;;;;;;15.59;74.79;94786.00;5086007;28;20406;-82
2022/05/30 00:19:42;;;;;;;5.28;3.10;;;;;;;15.59;74.73;94786.00;5083855;28;20043;-81
2022/05/30 00:22:11;;;;;;;6.20;3.40;;;;;;;15.57;74.55;94794.34;5085529;28;20024;-82
2022/05/30 00:24:36;;;;;;;4.97;2.70;;;;;;;15.57;74.49;94790.84;5082715;28;20169;-82
2022/05/30 00:27:02;;;;;;;5.38;3.42;;;;;;;15.57;74.41;94788.13;5088516;28;20421;-81
2022/05/30 00:29:28;;;;;;;5.55;2.85;;;;;;;15.53;74.36;94786.91;5088599;28;20020;-82
2022/05/30 00:31:53;;;;;;;6.75;2.88;;;;;;;15.50;74.44;94788.19;5087949;28;20146;-80
2022/05/30 00:34:20;;;;;;;6.15;3.08;;;;;;;15.46;74.78;94786.97;5089031;28;20044;-81
2022/05/30 00:36:45;;;;;;;4.63;2.90;;;;;;;15.45;74.22;94790.72;5086834;28;20040;-81
2022/05/30 00:39:11;;;;;;;6.38;2.60;;;;;;;15.48;73.76;94789.44;5087722;28;20024;-82
2022/05/30 00:41:36;;;;;;;3.40;2.28;;;;;;;15.49;73.91;94785.72;5068693;28;20037;-81
2022/05/30 00:44:02;;;;;;;4.50;2.35;;;;;;;15.50;73.16;94795.47;5087418;28;20341;-83
2022/05/30 00:46:27;;;;;;;4.63;2.60;;;;;;;15.47;73.60;94795.91;5088219;28;20064;-82
2022/05/30 00:49:01;;;;;;;4.50;2.65;;;;;;;15.44;73.73;94794.50;5088440;28;20055;-82
2022/05/30 00:51:29;;;;;;;3.65;2.67;;;;;;;15.40;73.84;94799.50;5054321;28;20021;-83
2022/05/30 00:53:56;;;;;;;3.42;2.58;;;;;;;15.15;73.83;94800.38;5068756;28;20158;-81
2022/05/30 00:56:22;;;;;;;4.45;2.45;;;;;;;15.06;73.02;94805.22;5054560;28;20059;-81
2022/05/30 00:58:49;;;;;;;7.38;2.67;;;;;;;15.07;72.86;94804.16;5085465;28;20032;-82
2022/05/30 01:01:14;;;;;;;3.30;1.95;;;;;;;15.12;72.82;94808.09;5054067;28;20054;-81
2022/05/30 01:06:36;;;;;;;2.85;1.98;;;;;;;15.12;72.30;94814.28;5085913;28;20865;-82
2022/05/30 01:09:09;;;;;;;5.75;2.42;;;;;;;15.11;72.95;94812.66;5070674;28;20020;-81
2022/05/30 01:11:47;;;;;;;;;;;;;;;15.09;72.14;94809.34;5085780;28;20439;-81
2022/05/30 01:14:13;;;;;;;4.55;2.10;;;;;;;14.98;71.61;94812.78;5086911;28;19919;-81
2022/05/30 01:16:38;;;;;;;4.35;2.30;;;;;;;14.97;71.62;94805.72;5085725;28;20032;-81
2022/05/30 01:19:04;;;;;;;4.30;2.38;;;;;;;14.97;71.42;94814.66;5086289;28;20035;-81
2022/05/30 01:21:52;;;;;;;4.13;2.30;;;;;;;14.87;72.28;94815.13;5086756;28;20024;-82
2022/05/30 01:24:24;;;;;;;4.60;2.90;;;;;;;14.75;71.87;94812.28;5085113;28;20031;-81
2022/05/30 01:26:56;;;;;;;9.68;3.42;;;;;;;14.67;72.51;94813.38;5087086;28;20064;-80
2022/05/30 01:29:27;;;;;;;6.10;3.78;;;;;;;14.73;72.43;94810.84;5085450;28;20038;-80
2022/05/30 01:31:56;;;;;;;4.68;3.65;;;;;;;14.74;72.18;94813.31;5069993;28;20085;-81
2022/05/30 01:34:22;;;;;;;6.90;4.68;;;;;;;14.68;72.62;94809.63;5086249;28;20044;-82
2022/05/30 01:36:48;;;;;;;6.75;4.40;;;;;;;14.67;72.58;94807.97;5068708;28;20524;-81
2022/05/30 01:39:13;;;;;;;7.55;5.75;;;;;;;14.69;72.67;94816.69;5087064;28;20025;-81
2022/05/30 01:41:39;;;;;;;11.95;6.03;;;;;;;14.70;72.45;94814.81;5085097;28;20031;-81
2022/05/30 01:44:04;;;;;;;11.27;6.15;;;;;;;14.70;72.23;94820.22;5086186;28;20031;-83
2022/05/30 01:46:29;;;;;;;9.82;5.53;;;;;;;14.68;72.09;94809.63;5084890;28;20027;-83
2022/05/30 01:48:55;;;;;;;9.00;6.80;;;;;;;14.64;72.39;94803.00;5087825;28;20024;-81
2022/05/30 01:51:21;;;;;;;9.90;7.25;;;;;;;14.66;72.06;94805.50;5085433;28;20023;-81
2022/05/30 01:53:47;;;;;;;10.57;7.22;;;;;;;14.61;72.45;94814.25;5085148;28;20028;-81
2022/05/30 01:56:14;;;;;;;12.43;6.70;;;;;;;14.63;72.37;94809.47;5087478;28;20027;-81
2022/05/30 01:58:39;;;;;;;10.70;6.63;;;;;;;14.62;72.34;94810.47;5085999;28;20093;-81
2022/05/30 02:01:05;;;;;;;8.98;6.10;;;;;;;14.57;72.33;94807.63;5069285;28;20032;-83
2022/05/30 02:03:33;;;;;;;9.25;5.78;;;;;;;14.52;72.39;94810.16;5084567;28;20036;-83
2022/05/30 02:05:59;;;;;;;7.10;5.15;;;;;;;14.54;72.31;94813.47;5085828;28;20024;-81
2022/05/30 02:08:24;;;;;;;7.65;4.68;;;;;;;14.51;72.33;94822.00;5084516;28;20032;-81
2022/05/30 02:10:50;;;;;;;9.25;5.50;;;;;;;14.46;72.23;94823.47;5086565;28;20525;-81
2022/05/30 02:13:15;;;;;;;7.22;5.22;;;;;;;14.50;71.97;94823.03;5085381;28;20035;-83
2022/05/30 02:18:25;;;;;;;9.88;5.05;;;;;;;14.56;71.69;94831.09;5087558;28;20101;-81
2022/05/30 02:20:50;;;;;;;6.97;5.10;;;;;;;14.54;72.21;94840.44;5084101;28;20462;-82
2022/05/30 02:23:17;;;;;;;6.25;5.00;;;;;;;14.58;72.13;94844.34;5085514;28;20032;-81
2022/05/30 02:25:43;;;;;;;10.05;5.25;;;;;;;14.58;72.17;94841.66;5085546;28;20055;-82
2022/05/30 02:28:08;;;;;;;9.88;5.90;;;;;;;14.58;72.24;94839.81;5068452;28;20020;-81
2022/05/30 02:30:34;;;;;;;10.45;6.10;;;;;;;14.58;72.23;94836.25;5085001;28;20077;-83
2022/05/30 02:36:38;;;;;;;8.90;5.80;;;;;;;14.57;72.48;94827.34;5083894;28;20024;-83
2022/05/30 02:38:28;;;;;;;8.98;5.82;;;;;;;14.50;72.44;94833.81;5084440;28;20108;-81
2022/05/30 02:40:54;;;;;;;11.23;7.15;;;;;;;14.46;72.54;94838.84;5086678;28;20024;-82
2022/05/30 02:43:19;;;;;;;8.43;5.88;;;;;;;14.46;72.68;94845.03;5084357;28;20028;-83
2022/05/30 02:45:45;;;;;;;8.68;6.07;;;;;;;14.47;72.43;94853.97;5086047;28;20024;-83
2022/05/30 02:48:10;;;;;;;10.40;6.25;;;;;;;14.46;72.61;94861.22;5084863;28;20029;-82
2022/05/30 02:50:36;;;;;;;12.68;6.45;;;;;;;14.48;72.57;94863.72;5084255;28;20028;-82
2022/05/30 02:53:01;;;;;;;12.82;6.97;;;;;;;14.49;72.11;94873.47;5087213;28;20024;-83
2022/05/30 02:55:27;;;;;;;9.93;6.03;;;;;;;14.49;72.01;94872.66;5084103;28;20028;-82
2022/05/30 02:57:52;;;;;;;8.40;5.75;;;;;;;14.37;72.06;94870.63;5086889;28;20043;-81
2022/05/30 03:00:18;;;;;;;8.85;5.70;;;;;;;14.30;71.76;94878.75;5067298;28;20043;-82
2022/05/30 03:02:43;;;;;;;7.55;5.63;;;;;;;14.28;71.62;94880.81;5084672;28;20059;-80
2022/05/30 03:05:09;;;;;;;9.27;5.45;;;;;;;14.15;71.08;94887.13;5084062;28;20036;-82
2022/05/30 03:07:35;;;;;;;7.35;5.30;;;;;;;14.06;70.70;94891.91;5085273;28;20471;-83
2022/05/30 03:10:01;;;;;;;6.80;4.78;;;;;;;13.89;71.16;94899.63;5051897;28;20050;-81
2022/05/30 03:12:26;;;;;;;7.65;4.47;;;;;;;13.63;71.78;94895.94;5082763;28;20445;-82
2022/05/30 03:14:52;;;;;;;7.18;4.40;;;;;;;13.58;72.15;94899.28;5085179;28;20032;-84
2022/05/30 03:17:17;;;;;;;8.85;4.28;;;;;;;13.45;73.04;94907.31;5083174;28;20024;-81
2022/05/30 03:19:43;;;;;;;5.70;3.50;;;;;;;13.25;73.83;94921.59;5086114;28;20035;-82
2022/05/30 03:22:10;;;;;;;6.25;3.70;;;;;;;13.14;73.90;94912.28;5085310;28;20027;-81
2022/05/30 03:24:35;;;;;;;6.65;3.70;;;;;;;13.27;73.71;94919.53;5084251;28;20106;-81
2022/05/30 03:27:00;;;;;;;7.75;3.83;;;;;;;13.33;74.02;94928.69;5084739;28;20039;-81
2022/05/30 03:29:26;;;;;;;5.38;3.58;;;;;;;13.41;74.09;94925.75;5084667;28;20024;-83
2022/05/30 03:31:52;;;;;;;5.70;3.80;;;;;;;13.47;74.00;94933.03;5085293;28;20043;-82
2022/05/30 03:34:18;;;;;;;8.13;4.35;;;;;;;13.29;75.00;94938.19;5083799;28;20086;-83
2022/05/30 03:36:43;;;;;;;8.93;5.00;;;;;;;13.39;74.98;94946.69;5084530;28;20020;-82
2022/05/30 03:39:09;;;;;;;8.75;5.03;;;;;;;13.46;75.06;94946.72;5083084;28;20040;-82
2022/05/30 03:41:34;;;;;;;9.55;6.05;;;;;;;13.40;75.66;94955.59;5067577;28;20024;-82
2022/05/30 03:44:00;;;;;;;9.43;6.07;;;;;;;13.18;76.77;94959.31;5083750;28;20032;-81
2022/05/30 03:46:29;;;;;;;10.15;5.95;;;;;;;13.29;76.75;94955.19;5083518;28;20027;-82
2022/05/30 03:48:55;;;;;;;12.55;6.88;;;;;;;13.46;76.72;94965.56;5075836;28;20114;-82
2022/05/30 03:51:20;;;;;;;9.93;6.18;;;;;;;13.58;76.58;94963.09;5082837;28;20024;-81
2022/05/30 03:53:45;;;;;;;13.13;6.78;;;;;;;13.66;76.46;94959.34;5051210;28;20050;-82
2022/05/30 03:56:11;;;;;;;11.05;7.07;;;;;;;13.68;76.24;94958.13;5085253;28;20020;-82
2022/05/30 03:58:37;;;;;;;12.68;7.07;;;;;;;13.71;76.67;94971.19;5085949;28;20028;-81
2022/05/30 04:01:06;;;;;;;12.02;7.50;;;;;;;13.80;76.53;94965.59;5087500;28;20020;-81
2022/05/30 04:03:32;;;;;;;11.80;7.00;;;;;;;13.84;76.65;94966.81;5088128;28;20093;-82
2022/05/30 04:05:58;;;;;;;10.70;7.03;;;;;;;13.90;76.48;94967.81;5088472;28;20024;-82
2022/05/30 04:08:23;;;;;;;11.55;7.10;;;;;;;13.95;76.32;94984.22;5088193;28;20108;-82
2022/05/30 04:10:49;;;;;;;11.02;7.47;;;;;;;14.04;76.10;94982.94;5089257;28;20494;-82
2022/05/30 04:13:14;;;;;;;12.63;7.90;;;;;;;14.25;75.48;94980.22;5073059;28;20490;-81
2022/05/30 04:15:40;;;;;;;13.77;8.07;;;;;;;14.34;75.11;94987.88;5071375;28;20093;-80
2022/05/30 04:18:05;;;;;;;10.35;7.68;;;;;;;14.38;75.10;94980.16;5088830;28;20028;-82
2022/05/30 04:20:31;;;;;;;8.52;6.88;;;;;;;14.43;74.46;94979.53;5070807;28;20031;-81
2022/05/30 04:22:56;;;;;;;9.45;6.82;;;;;;;14.25;75.04;94978.34;5087724;28;20028;-81
2022/05/30 04:25:22;;;;;;;10.63;7.20;;;;;;;14.15;75.81;94980.66;5087497;28;20024;-81
2022/05/30 04:27:47;;;;;;;9.55;6.82;;;;;;;14.30;75.47;94988.53;5088351;28;20396;-82
2022/05/30 04:30:13;;;;;;;9.10;6.80;;;;;;;14.51;74.78;94989.28;5087039;28;20024;-82
2022/05/30 04:32:38;;;;;;;13.25;6.63;;;;;;;14.75;74.29;94984.22;5088154;28;20413;-84
2022/05/30 04:35:05;;;;;;;10.43;7.07;;;;;;;14.95;74.04;94990.38;5087914;28;20516;-84
2022/05/30 04:37:30;;;;;;;9.23;6.95;;;;;;;15.09;73.00;94987.59;5088035;28;20081;-82
2022/05/30 04:39:56;;;;;;;12.48;7.30;;;;;;;15.37;72.52;94989.09;5086907;28;20024;-85
2022/05/30 04:42:22;;;;;;;11.93;7.65;;;;;;;15.59;71.23;94996.00;5088696;28;20044;-82
2022/05/30 04:44:47;;;;;;;10.48;7.10;;;;;;;15.69;71.12;94993.63;5087170;28;20023;-81
2022/05/30 04:47:13;;;;;;;10.52;6.93;;;;;;;15.82;70.82;94995.41;5087714;28;20028;-81
2022/05/30 04:49:38;;;;;;;9.95;6.82;;;;;;;15.98;70.30;95004.03;5089448;28;20475;-82
2022/05/30 04:52:05;;;;;;;11.88;5.93;;;;;;;16.18;69.00;94993.03;5087775;28;20540;-83
2022/05/30 04:54:30;;;;;;;9.75;6.28;;;;;;;16.38;68.20;94997.44;5087944;28;20028;-84
2022/05/30 04:56:55;;;;;;;9.52;6.40;;;;;;;16.54;68.89;95006.84;5086338;28;20043;-83
2022/05/30 04:59:22;;;;;;;7.72;5.85;;;;;;;16.60;67.88;95005.94;5088866;28;20021;-82
2022/05/30 05:01:48;;;;;;;10.82;6.75;;;;;;;16.75;67.95;95002.00;5086409;28;20027;-82
2022/05/30 05:04:14;;;;;;;9.75;6.28;;;;;;;16.67;67.73;95006.66;5087453;28;20020;-81
2022/05/30 05:06:40;;;;;;;9.00;6.45;;;;;;;16.78;67.56;95015.91;5087919;28;20047;-80
2022/05/30 05:09:18;;;;;;;9.25;6.53;;;;;;;16.95;66.64;95018.00;5086043;28;20020;-81
2022/05/30 05:11:44;;;;;;;10.43;6.97;;;;;;;16.95;66.45;95025.28;5088323;28;20024;-81
2022/05/30 05:14:10;;;;;;;9.43;6.93;;;;;;;16.78;67.14;95018.59;5068828;28;20386;-81
2022/05/30 05:16:35;;;;;;;10.80;7.47;;;;;;;16.92;66.91;95021.16;5087268;28;20025;-82
2022/05/30 05:19:01;;;;;;;9.73;7.00;;;;;;;17.00;67.76;95022.75;5069213;28;20037;-82
2022/05/30 05:21:31;;;;;;;13.38;8.00;;;;;;;16.96;67.23;95030.47;5086733;28;20485;-81
2022/05/30 05:23:57;;;;;;;11.98;7.28;;;;;;;17.17;66.59;95028.38;5070792;28;20031;-81
2022/05/30 05:26:23;;;;;;;9.80;7.25;;;;;;;17.10;66.14;95022.22;5068943;28;20035;-84
2022/05/30 05:28:48;;;;;;;10.75;7.40;;;;;;;17.07;67.19;95031.63;5087027;28;20028;-82
2022/05/30 05:31:25;;;;;;;10.35;7.45;;;;;;;17.11;66.58;95023.88;5085520;28;20024;-81
2022/05/30 05:33:51;;;;;;;9.25;7.40;;;;;;;17.12;65.84;95030.97;5070166;28;20084;-86
2022/05/30 05:36:24;;;;;;;13.95;8.52;;;;;;;17.25;65.37;95024.53;5069004;28;20047;-83
2022/05/30 05:38:50;;;;;;;12.25;8.60;;;;;;;17.26;66.77;95034.31;5085862;28;20027;-82
2022/05/30 05:41:15;;;;;;;13.40;7.78;;;;;;;17.32;66.99;95038.81;5053295;28;20056;-85
2022/05/30 05:43:41;;;;;;;10.75;8.07;;;;;;;17.33;67.06;95026.91;5084935;28;20032;-82
2022/05/30 05:46:14;;;;;;;10.93;7.47;;;;;;;17.41;67.01;95034.72;5086564;28;20024;-82
2022/05/30 05:48:40;;;;;;;12.98;7.82;;;;;;;17.52;66.23;95037.72;5086719;28;20032;-82
2022/05/30 05:51:05;;;;;;;12.57;8.32;;;;;;;17.52;66.77;95037.72;5087577;28;20485;-81
2022/05/30 05:53:31;;;;;;;12.25;8.18;;;;;;;17.63;66.52;95039.66;5085348;28;20024;-82
2022/05/30 05:55:56;;;;;;;12.27;8.93;;;;;;;17.83;65.77;95045.81;5086949;28;20024;-80
2022/05/30 05:58:21;;;;;;;12.98;8.60;;;;;;;18.03;65.20;95051.75;5087348;28;20024;-80
2022/05/30 06:00:47;;;;;;;11.80;8.50;;;;;;;17.85;65.58;95049.09;5085162;28;20036;-80
2022/05/30 06:03:12;;;;;;;17.30;9.10;;;;;;;17.75;65.20;95047.00;5087958;28;20025;-83
2022/05/30 06:05:41;;;;;;;12.13;8.45;;;;;;;18.02;65.04;95052.00;5084379;28;20036;-81
2022/05/30 06:08:06;;;;;;;14.48;8.20;;;;;;;18.07;65.15;95054.00;5086041;28;20024;-83
2022/05/30 06:10:33;;;;;;;12.32;7.68;;;;;;;17.97;65.39;95058.13;5084696;28;20127;-83
2022/05/30 06:12:58;;;;;;;11.13;7.97;;;;;;;18.15;64.73;95061.84;5085446;28;20024;-81
2022/05/30 06:15:24;;;;;;;14.00;8.02;;;;;;;18.31;65.43;95056.75;5085434;28;20052;-79
2022/05/30 06:17:49;;;;;;;11.27;8.30;;;;;;;18.31;64.73;95064.91;5085207;28;20032;-81
2022/05/30 06:20:16;;;;;;;14.82;8.70;;;;;;;18.45;64.39;95065.50;5085499;28;20028;-79
2022/05/30 06:22:41;;;;;;;11.32;8.50;;;;;;;18.56;64.05;95066.53;5083754;28;20383;-82
2022/05/30 06:25:07;;;;;;;12.50;8.95;;;;;;;18.67;64.07;95073.88;5087047;28;20051;-82
2022/05/30 06:27:32;;;;;;;12.00;8.98;;;;;;;18.82;64.93;95073.38;5083950;28;20138;-81
2022/05/30 06:29:58;;;;;;;11.63;7.88;;;;;;;18.62;65.52;95076.50;5068756;28;20027;-81
2022/05/30 06:32:23;;;;;;;11.32;8.35;;;;;;;18.57;65.08;95074.47;5067455;28;20024;-81
2022/05/30 06:34:49;;;;;;;12.15;8.30;;;;;;;18.42;65.55;95072.22;5068056;28;20117;-82
2022/05/30 06:37:14;;;;;;;10.65;7.60;;;;;;;18.47;65.36;95066.09;5084824;28;20039;-81
2022/05/30 06:39:40;;;;;;;12.75;7.45;;;;;;;18.44;64.74;95069.28;5084306;28;20089;-81
2022/05/30 06:42:12;;;;;;;10.07;7.13;;;;;;;18.47;64.61;95074.25;5068617;28;20024;-81
2022/05/30 06:44:38;;;;;;;12.40;8.10;;;;;;;18.61;62.95;95070.22;5066555;28;20020;-82
2022/05/30 06:47:04;;;;;;;12.13;7.95;;;;;;;18.74;62.96;95071.03;5068660;28;20028;-81
2022/05/30 06:49:29;;;;;;;11.93;7.55;;;;;;;18.50;63.17;95071.03;5084207;28;20032;-82
2022/05/30 06:51:55;;;;;;;15.20;8.13;;;;;;;18.60;62.73;95070.47;5067799;28;20089;-82
2022/05/30 06:54:20;;;;;;;11.23;7.82;;;;;;;18.46;63.31;95072.59;5066705;28;20032;-81
2022/05/30 06:59:30;;;;;;;10.80;7.55;;;;;;;18.49;64.00;95066.69;5085436;28;20504;-82
2022/05/30 07:01:55;;;;;;;12.68;8.02;;;;;;;18.82;63.55;95078.81;5084817;28;20032;-79
2022/05/30 07:04:21;;;;;;;10.45;7.95;;;;;;;18.95;62.89;95077.75;5086238;28;20020;-80
2022/05/30 07:06:46;;;;;;;9.20;7.30;;;;;;;19.14;62.21;95078.44;5083580;28;20028;-81
2022/05/30 07:09:12;;;;;;;11.30;7.78;;;;;;;19.07;62.58;95082.34;5067804;28;20436;-81
2022/05/30 07:11:39;;;;;;;14.85;7.75;;;;;;;19.12;62.28;95079.75;5066767;28;20062;-81
2022/05/30 07:14:10;;;;;;;12.40;7.47;;;;;;;19.21;62.16;95074.75;5085314;28;20043;-81
2022/05/30 07:16:36;;;;;;;9.52;7.45;;;;;;;19.24;62.17;95071.56;5084548;28;20028;-81
2022/05/30 07:19:02;;;;;;;11.00;7.88;;;;;;;19.25;61.85;95071.31;5083487;28;20027;-81
2022/05/30 07:21:28;;;;;;;11.13;7.28;;;;;;;19.21;61.82;95078.31;5086308;28;20024;-80
2022/05/30 07:23:54;;;;;;;11.68;7.35;;;;;;;19.41;60.92;95073.53;5083234;28;20080;-82
2022/05/30 07:26:20;;;;;;;13.55;7.25;;;;;;;19.66;61.26;95080.50;5085659;28;20414;-81
2022/05/30 07:28:46;;;;;;;9.05;7.32;;;;;;;19.55;61.24;95074.88;5067119;28;20093;-83
2022/05/30 07:31:13;;;;;;;11.27;7.72;;;;;;;19.55;60.76;95074.06;5067797;28;20482;-83
2022/05/30 07:33:40;;;;;;;10.77;7.53;;;;;;;19.73;59.36;95073.03;5084203;28;20521;-82
2022/05/30 07:36:10;;;;;;;11.88;7.57;;;;;;;19.82;59.60;95082.44;5084504;28;20425;-82
2022/05/30 07:38:35;;;;;;;12.63;7.50;;;;;;;19.84;58.96;95071.31;5067715;28;20350;-84
2022/05/30 07:41:01;;;;;;;10.55;6.90;;;;;;;20.00;58.69;95077.84;5083001;28;20029;-82
2022/05/30 07:43:26;;;;;;;9.48;7.10;;;;;;;20.02;58.46;95075.72;5084081;28;20025;-82
2022/05/30 07:45:51;;;;;;;11.73;7.63;;;;;;;20.02;57.71;95081.16;5083126;28;20028;-81
2022/05/30 07:48:17;;;;;;;11.65;7.30;;;;;;;20.09;57.91;95087.28;5066911;28;20039;-81
2022/05/30 07:50:42;;;;;;;11.10;8.13;;;;;;;19.87;58.60;95079.81;5084963;28;20027;-82
2022/05/30 07:53:08;;;;;;;11.27;6.95;;;;;;;19.96;58.11;95088.41;5083238;28;20028;-81
2022/05/30 07:55:34;;;;;;;10.65;7.10;;;;;;;20.10;58.23;95078.03;5067276;28;20032;-80
2022/05/30 07:58:04;;;;;;;10.85;6.75;;;;;;;20.07;58.71;95083.19;5049591;28;20042;-83
2022/05/30 08:00:31;;;;;;;11.27;6.20;;;;;;;20.15;58.03;95082.78;5085957;28;20039;-83
2022/05/30 08:02:56;;;;;;;10.10;6.22;;;;;;;20.23;58.55;95076.09;5084577;28;20028;-82
2022/05/30 08:05:22;;;;;;;12.98;7.03;;;;;;;20.47;55.96;95094.97;5085778;28;20074;-84
2022/05/30 08:07:47;;;;;;;9.43;6.60;;;;;;;20.45;56.56;95097.13;5083233;28;20035;-80
2022/05/30 08:10:14;;;;;;;9.68;6.32;;;;;;;20.44;56.45;95088.13;5083932;28;20499;-86
2022/05/30 08:12:39;;;;;;;7.90;6.30;;;;;;;20.45;57.14;95088.94;5084027;28;20028;-82
2022/05/30 08:15:05;;;;;;;13.82;7.60;;;;;;;20.46;57.50;95090.59;5082845;28;20020;-83
2022/05/30 08:17:31;;;;;;;8.60;6.70;;;;;;;20.52;57.30;95084.19;5084628;28;20165;-81
2022/05/30 08:19:59;;;;;;;10.18;6.45;;;;;;;20.65;55.41;95087.63;5082648;28;20024;-81
2022/05/30 08:22:24;;;;;;;9.73;6.22;;;;;;;20.62;55.84;95087.03;5084244;28;20131;-82
2022/05/30 08:24:53;;;;;;;10.88;6.47;;;;;;;20.48;55.35;95083.00;5065779;28;20571;-81
2022/05/30 08:27:19;;;;;;;12.48;7.20;;;;;;;20.58;56.74;95083.19;5083991;28;20032;-82
2022/05/30 08:29:45;;;;;;;8.65;6.22;;;;;;;20.52;56.03;95080.63;5066932;28;20028;-82
2022/05/30 08:32:11;;;;;;;8.95;6.15;;;;;;;20.77;54.20;95092.94;5067157;28;20047;-81
2022/05/30 08:34:37;;;;;;;9.02;6.00;;;;;;;20.95;53.62;95090.00;5084381;28;20430;-84
2022/05/30 08:37:03;;;;;;;10.35;6.32;;;;;;;20.53;55.24;95091.25;5083837;28;20040;-82
2022/05/30 08:42:12;;;;;;;11.90;6.43;;;;;;;20.35;56.50;95090.44;5083773;28;20097;-81
2022/05/30 08:44:38;;;;;;;8.25;5.75;;;;;;;20.24;57.43;95089.47;5083204;28;20457;-81
2022/05/30 08:47:13;;;;;;;8.52;5.93;;;;;;;20.19;56.75;95080.38;5084839;28;20085;-80
2022/05/30 08:49:50;;;;;;;13.05;6.53;;;;;;;20.27;58.16;95088.13;5085933;28;20331;-87
2022/05/30 08:52:28;;;;;;;11.95;6.30;;;;;;;20.31;56.90;95083.84;5087470;28;20016;-82
2022/05/30 08:55:20;;;;;;;7.80;5.88;;;;;;;20.60;54.54;95088.38;5087053;28;20032;-85
2022/05/30 08:58:09;;;;;;;10.63;5.77;;;;;;;20.51;55.23;95077.06;5055242;28;20043;-81
2022/05/30 09:00:38;;;;;;;8.85;5.47;;;;;;;20.31;56.10;95086.56;5072931;28;20394;-81
2022/05/30 09:03:12;;;;;;;9.70;5.70;;;;;;;20.41;56.61;95096.78;5068781;28;20036;-81
2022/05/30 09:05:51;;;;;;;10.15;5.43;;;;;;;20.58;56.44;95094.06;5070091;28;20104;-80
2022/05/30 09:08:27;;;;;;;9.18;6.03;;;;;;;20.50;56.77;95102.66;5085835;28;20269;-80
2022/05/30 09:10:57;;;;;;;9.73;5.53;;;;;;;20.48;55.67;95089.28;5069780;28;20114;-81
2022/05/30 09:13:31;;;;;;;9.05;5.60;;;;;;;20.23;56.44;95097.88;5088206;28;20519;-80
2022/05/30 09:16:30;;;;;;;9.73;6.15;;;;;;;20.58;55.63;95098.69;5085196;28;20034;-81
2022/05/30 09:18:57;;;;;;;7.93;5.20;;;;;;;20.57;55.02;95108.75;5087846;28;20068;-81
2022/05/30 09:21:23;;;;;;;10.95;5.53;;;;;;;20.56;56.17;95106.28;5069172;28;20032;-81
2022/05/30 09:23:49;;;;;;;11.02;5.47;;;;;;;20.36;57.25;95104.91;5069240;28;20027;-81
2022/05/30 09:26:34;;;;;;;11.32;5.40;;;;;;;20.52;57.02;95105.13;5086416;28;20032;-81
2022/05/30 09:29:05;;;;;;;6.88;4.85;;;;;;;20.78;55.46;95109.06;5068486;28;20031;-82
2022/05/30 09:31:36;;;;;;;7.05;4.93;;;;;;;20.84;56.62;95108.06;5086960;28;20490;-81
2022/05/30 09:34:34;;;;;;;8.55;5.15;;;;;;;20.64;55.98;95103.13;5086656;28;20069;-81
2022/05/30 09:36:59;;;;;;;8.52;5.30;;;;;;;20.79;57.10;95105.28;5086595;28;20431;-81
2022/05/30 09:39:25;;;;;;;9.23;5.05;;;;;;;20.69;56.17;95102.38;5069984;28;20090;-81
2022/05/30 09:41:57;;;;;;;7.68;5.22;;;;;;;20.67;56.92;95108.09;5086593;28;20032;-81
2022/05/30 09:44:29;;;;;;;8.88;5.50;;;;;;;20.81;55.06;95100.38;5070075;28;20024;-80
2022/05/30 09:47:04;;;;;;;12.50;5.40;;;;;;;20.90;56.19;95106.22;5069145;28;20031;-81
2022/05/30 09:49:42;;;;;;;9.23;5.80;;;;;;;20.96;54.97;95109.88;5086093;28;20297;-81
2022/05/30 09:52:38;;;;;;;7.22;5.00;;;;;;;20.95;55.72;95097.34;5085963;28;20020;-81
2022/05/30 09:55:23;;;;;;;8.18;4.78;;;;;;;20.83;55.67;95100.97;5068686;28;20107;-81
2022/05/30 09:57:48;;;;;;;9.02;4.75;;;;;;;20.99;56.41;95104.75;5087217;28;20020;-82
2022/05/30 10:00:32;;;;;;;9.90;4.95;;;;;;;21.13;56.23;95093.50;5086237;28;20430;-81
2022/05/30 10:03:31;;;;;;;8.27;4.80;;;;;;;20.83;54.49;95105.59;5085211;28;20501;-81
2022/05/30 10:06:24;;;;;;;12.30;5.22;;;;;;;21.05;56.77;95107.56;5087080;28;20549;-81
2022/05/30 10:08:50;;;;;;;;;;;;;;;21.25;54.74;95107.00;5084501;28;20040;-81
2022/05/30 10:11:32;;;;;;;16.85;6.97;;;;;;;21.14;55.72;95107.94;5086537;28;19912;-81
2022/05/30 10:13:57;;;;;;;7.32;5.38;;;;;;;21.10;53.86;95105.72;5085989;28;20052;-81
2022/05/30 10:16:33;;;;;;;8.55;5.22;;;;;;;21.17;54.90;95102.81;5084226;28;20634;-81
2022/05/30 10:19:04;;;;;;;10.85;5.32;;;;;;;21.26;53.94;95103.22;5086265;28;20051;-81
2022/05/30 10:21:35;;;;;;;10.00;5.30;;;;;;;21.33;53.29;95106.56;5067736;28;20099;-81
2022/05/30 10:30:52;;;;;;;8.57;5.22;;;;;;;21.29;54.32;95094.50;5085449;28;20066;-80
2022/05/30 10:33:48;;;;;;;8.13;6.20;;;;;;;21.29;55.10;95091.78;5085599;28;20024;-80
2022/05/30 10:36:31;;;;;;;13.23;5.72;;;;;;;21.30;55.15;95103.50;5086698;28;20048;-81
2022/05/30 10:39:21;;;;;;;9.75;4.82;;;;;;;21.38;53.16;95100.34;5085656;28;20031;-80
2022/05/30 10:41:59;;;;;;;6.82;4.68;;;;;;;21.59;51.97;95093.22;5084697;28;20027;-81
2022/05/30 10:44:29;;;;;;;7.80;5.10;;;;;;;21.79;52.48;95091.00;5069338;28;20519;-81
2022/05/30 10:47:25;;;;;;;9.27;4.15;;;;;;;21.88;52.86;95096.84;5066921;28;20024;-80
2022/05/30 10:49:59;;;;;;;8.25;5.20;;;;;;;21.70;52.92;95099.63;5085196;28;20031;-81
2022/05/30 10:52:32;;;;;;;8.25;4.57;;;;;;;21.68;51.81;95093.56;5084134;28;20055;-80
2022/05/30 10:55:11;;;;;;;6.43;4.93;;;;;;;21.78;51.80;95094.81;5067213;28;20107;-80
2022/05/30 10:57:39;;;;;;;10.70;5.45;;;;;;;22.00;51.51;95096.66;5084911;28;20082;-80
2022/05/30 11:00:25;;;;;;;12.07;4.82;;;;;;;21.99;51.34;95093.09;5066528;28;20031;-80
2022/05/30 11:03:16;;;;;;;9.30;4.65;;;;;;;22.06;52.59;95087.44;5067646;28;20031;-81
2022/05/30 11:06:10;;;;;;;7.68;4.43;;;;;;;22.05;53.05;95089.38;5084523;28;20038;-81
2022/05/30 11:08:55;;;;;;;10.10;4.22;;;;;;;22.40;51.82;95086.34;5067225;28;20470;-81
2022/05/30 11:11:39;;;;;;;10.43;4.90;;;;;;;22.45;51.27;95081.78;5067583;28;20028;-82
2022/05/30 11:14:29;;;;;;;11.70;4.50;;;;;;;22.66;50.58;95089.31;5084170;28;20112;-81
2022/05/30 11:16:58;;;;;;;9.82;4.50;;;;;;;22.64;49.17;95080.53;5083436;28;20069;-80
2022/05/30 11:19:33;;;;;;;10.65;4.40;;;;;;;22.89;51.33;95084.56;5068020;28;20078;-80
2022/05/30 11:22:19;;;;;;;8.65;4.72;;;;;;;23.00;50.89;95089.00;5066485;28;20039;-80
2022/05/30 11:24:51;;;;;;;11.38;4.38;;;;;;;23.02;49.61;95081.31;5084014;28;20174;-82
2022/05/30 11:27:33;;;;;;;;;;;;;;;23.14;49.47;95083.03;5085077;28;20043;-82
2022/05/30 11:30:31;;;;;;;7.20;4.38;;;;;;;23.34;49.54;95087.78;5066560;28;20301;-80
2022/05/30 11:33:28;;;;;;;8.48;4.25;;;;;;;23.28;49.19;95089.66;5085127;28;20047;-81
2022/05/30 11:36:23;;;;;;;8.48;4.40;;;;;;;23.76;49.34;95088.78;5085322;28;20132;-81
2022/05/30 11:39:30;;;;;;;7.50;4.25;;;;;;;24.03;47.66;95076.78;5082871;28;20028;-80
2022/05/30 11:42:12;;;;;;;9.98;4.90;;;;;;;23.95;47.20;95080.06;5083846;28;20044;-80
2022/05/30 11:44:46;;;;;;;6.72;4.60;;;;;;;24.05;48.30;95071.03;5084660;28;20028;-80
2022/05/30 11:47:20;;;;;;;11.05;4.53;;;;;;;24.11;48.83;95075.41;5066423;28;20470;-82
2022/05/30 11:49:48;;;;;;;11.73;4.40;;;;;;;24.12;44.69;95073.50;5084452;28;20476;-82
2022/05/30 11:52:23;;;;;;;6.35;4.07;;;;;;;24.00;43.40;95071.84;5084136;28;20036;-80
2022/05/30 11:55:07;;;;;;;12.63;4.28;;;;;;;24.23;45.76;95072.44;5083827;28;20410;-80
2022/05/30 11:57:47;;;;;;;10.45;4.60;;;;;;;24.42;45.89;95071.91;5083934;28;20266;-82
2022/05/30 12:00:29;;;;;;;8.55;3.85;;;;;;;24.74;46.38;95068.03;5067279;28;20469;-80